sensor_id;sensor_type;location;lat;lon;timestamp;pressure;altitude;pressure_sealevel;temperature;humidity
38022;BME280;23832;43.216;27.946;2023-04-09T00:01:01;101430.84;;;12.64;100.00
38022;BME280;23832;43.216;27.946;2023-04-09T00:03:03;101419.31;;;12.40;100.00
38022;BME280;23832;43.216;27.946;2023-04-09T00:05:05;101427.53;;;12.62;100.00
38022;BME280;23832;43.216;27.946;2023-04-09T00:07:07;101426.53;;;12.71;100.00
38022;BME280;23832;43.216;27.946;2023-04-09T00:09:09;101424.69;;;12.96;100.00
38022;BME280;23832;43.216;27.946;2023-04-09T00:11:11;101422.03;;;12.96;100.00
38022;BME280;23832;43.216;27.946;2023-04-09T00:13:13;101431.78;;;13.03;100.00
38022;BME280;23832;43.216;27.946;2023-04-09T00:15:15;101427.44;;;13.11;100.00
38022;BME280;23832;43.216;27.946;2023-04-09T00:17:18;101422.13;;;13.19;100.00
38022;BME280;23832;43.216;27.946;2023-04-09T00:19:19;101430.06;;;13.27;100.00
38022;BME280;23832;43.216;27.946;2023-04-09T00:21:21;101424.13;;;13.25;100.00
38022;BME280;23832;43.216;27.946;2023-04-09T00:23:23;101421.47;;;13.25;100.00
38022;BME280;23832;43.216;27.946;2023-04-09T00:25:24;101429.75;;;13.30;100.00
38022;BME280;23832;43.216;27.946;2023-04-09T00:27:27;101430.78;;;13.13;100.00
38022;BME280;23832;43.216;27.946;2023-04-09T00:29:29;101429.44;;;13.08;100.00
38022;BME280;23832;43.216;27.946;2023-04-09T00:31:31;101421.88;;;12.89;100.00
38022;BME280;23832;43.216;27.946;2023-04-09T00:33:34;101423.06;;;12.87;100.00
38022;BME280;23832;43.216;27.946;2023-04-09T00:35:36;101414.94;;;12.80;100.00
38022;BME280;23832;43.216;27.946;2023-04-09T00:37:38;101417.94;;;12.85;100.00
38022;BME280;23832;43.216;27.946;2023-04-09T00:39:40;101413.09;;;12.97;100.00
38022;BME280;23832;43.216;27.946;2023-04-09T00:41:42;101413.22;;;13.12;100.00
38022;BME280;23832;43.216;27.946;2023-04-09T00:43:43;101422.22;;;12.86;100.00
38022;BME280;23832;43.216;27.946;2023-04-09T00:45:45;101422.03;;;13.04;100.00
38022;BME280;23832;43.216;27.946;2023-04-09T00:47:47;101416.53;;;13.14;100.00
38022;BME280;23832;43.216;27.946;2023-04-09T00:49:50;101415.34;;;13.16;100.00
38022;BME280;23832;43.216;27.946;2023-04-09T00:51:52;101411.88;;;13.32;100.00
38022;BME280;23832;43.216;27.946;2023-04-09T00:53:54;101415.81;;;13.36;100.00
38022;BME280;23832;43.216;27.946;2023-04-09T00:55:56;101418.25;;;13.46;100.00
38022;BME280;23832;43.216;27.946;2023-04-09T00:57:58;101406.50;;;13.48;100.00
38022;BME280;23832;43.216;27.946;2023-04-09T01:00:00;101410.56;;;13.20;100.00
38022;BME280;23832;43.216;27.946;2023-04-09T01:02:03;101410.06;;;13.16;100.00
38022;BME280;23832;43.216;27.946;2023-04-09T01:04:05;101407.09;;;13.19;100.00
38022;BME280;23832;43.216;27.946;2023-04-09T01:06:09;101409.13;;;12.93;100.00
38022;BME280;23832;43.216;27.946;2023-04-09T01:08:13;101404.75;;;13.32;100.00
38022;BME280;23832;43.216;27.946;2023-04-09T01:10:20;101398.88;;;13.45;100.00
38022;BME280;23832;43.216;27.946;2023-04-09T01:12:27;101407.63;;;12.98;100.00
38022;BME280;23832;43.216;27.946;2023-04-09T01:14:34;101405.31;;;13.03;100.00
38022;BME280;23832;43.216;27.946;2023-04-09T01:16:38;101407.97;;;12.95;100.00
38022;BME280;23832;43.216;27.946;2023-04-09T01:18:43;101405.00;;;12.90;100.00
38022;BME280;23832;43.216;27.946;2023-04-09T01:20:49;101410.88;;;13.33;100.00
38022;BME280;23832;43.216;27.946;2023-04-09T01:22:58;101411.50;;;13.35;100.00
38022;BME280;23832;43.216;27.946;2023-04-09T01:25:12;101405.66;;;12.92;100.00
38022;BME280;23832;43.216;27.946;2023-04-09T01:27:20;101411.03;;;12.60;100.00
38022;BME280;23832;43.216;27.946;2023-04-09T01:29:23;101410.00;;;12.77;100.00
38022;BME280;23832;43.216;27.946;2023-04-09T01:31:27;101402.28;;;13.15;100.00
38022;BME280;23832;43.216;27.946;2023-04-09T01:33:30;101399.44;;;13.32;100.00
38022;BME280;23832;43.216;27.946;2023-04-09T01:35:32;101400.78;;;13.28;100.00
38022;BME280;23832;43.216;27.946;2023-04-09T01:37:33;101400.41;;;13.40;100.00
38022;BME280;23832;43.216;27.946;2023-04-09T01:39:36;101396.41;;;13.44;100.00
38022;BME280;23832;43.216;27.946;2023-04-09T01:41:38;101397.22;;;13.44;100.00
38022;BME280;23832;43.216;27.946;2023-04-09T01:43:40;101396.38;;;13.52;100.00
38022;BME280;23832;43.216;27.946;2023-04-09T01:45:44;101400.31;;;13.56;100.00
38022;BME280;23832;43.216;27.946;2023-04-09T01:47:46;101393.84;;;13.58;100.00
38022;BME280;23832;43.216;27.946;2023-04-09T01:49:48;101394.47;;;13.69;100.00
38022;BME280;23832;43.216;27.946;2023-04-09T01:51:51;101395.78;;;13.64;100.00
38022;BME280;23832;43.216;27.946;2023-04-09T01:53:53;101394.09;;;13.72;100.00
38022;BME280;23832;43.216;27.946;2023-04-09T01:55:55;101391.00;;;13.68;100.00
38022;BME280;23832;43.216;27.946;2023-04-09T01:57:56;101392.13;;;13.66;100.00
38022;BME280;23832;43.216;27.946;2023-04-09T01:59:58;101388.19;;;13.61;100.00
38022;BME280;23832;43.216;27.946;2023-04-09T02:02:03;101385.38;;;13.63;100.00
38022;BME280;23832;43.216;27.946;2023-04-09T02:04:09;101387.06;;;13.56;100.00
38022;BME280;23832;43.216;27.946;2023-04-09T02:06:12;101388.25;;;13.53;100.00
38022;BME280;23832;43.216;27.946;2023-04-09T02:08:16;101388.50;;;13.35;100.00
38022;BME280;23832;43.216;27.946;2023-04-09T02:10:21;101383.72;;;13.31;100.00
38022;BME280;23832;43.216;27.946;2023-04-09T02:12:25;101386.41;;;13.23;100.00
38022;BME280;23832;43.216;27.946;2023-04-09T02:14:27;101432.06;;;13.25;100.00
38022;BME280;23832;43.216;27.946;2023-04-09T02:16:30;101385.75;;;13.21;100.00
38022;BME280;23832;43.216;27.946;2023-04-09T02:18:34;101386.06;;;13.18;100.00
38022;BME280;23832;43.216;27.946;2023-04-09T02:20:36;101388.06;;;13.16;100.00
38022;BME280;23832;43.216;27.946;2023-04-09T02:22:38;101381.75;;;13.17;100.00
38022;BME280;23832;43.216;27.946;2023-04-09T02:24:40;101378.97;;;13.10;100.00
38022;BME280;23832;43.216;27.946;2023-04-09T02:26:41;101378.16;;;13.01;100.00
38022;BME280;23832;43.216;27.946;2023-04-09T02:28:43;101381.50;;;12.95;100.00
38022;BME280;23832;43.216;27.946;2023-04-09T02:30:45;101383.84;;;12.90;100.00
38022;BME280;23832;43.216;27.946;2023-04-09T02:32:47;101381.50;;;12.95;100.00
38022;BME280;23832;43.216;27.946;2023-04-09T02:34:50;101381.53;;;12.87;100.00
38022;BME280;23832;43.216;27.946;2023-04-09T02:36:52;101380.56;;;12.80;100.00
38022;BME280;23832;43.216;27.946;2023-04-09T02:38:54;101373.78;;;12.77;100.00
38022;BME280;23832;43.216;27.946;2023-04-09T02:40:55;101379.28;;;12.68;100.00
38022;BME280;23832;43.216;27.946;2023-04-09T02:42:57;101381.22;;;12.66;100.00
38022;BME280;23832;43.216;27.946;2023-04-09T02:44:59;101377.59;;;12.67;100.00
38022;BME280;23832;43.216;27.946;2023-04-09T02:47:00;101376.97;;;12.48;100.00
38022;BME280;23832;43.216;27.946;2023-04-09T02:49:02;101370.22;;;12.05;100.00
38022;BME280;23832;43.216;27.946;2023-04-09T02:51:06;101372.69;;;12.23;100.00
38022;BME280;23832;43.216;27.946;2023-04-09T02:53:07;101373.69;;;12.06;100.00
38022;BME280;23832;43.216;27.946;2023-04-09T02:55:09;101367.91;;;12.27;100.00
38022;BME280;23832;43.216;27.946;2023-04-09T02:57:11;101372.03;;;12.21;100.00
38022;BME280;23832;43.216;27.946;2023-04-09T02:59:13;101369.88;;;12.16;100.00
38022;BME280;23832;43.216;27.946;2023-04-09T03:01:15;101370.88;;;12.15;100.00
38022;BME280;23832;43.216;27.946;2023-04-09T03:03:16;101370.38;;;12.20;100.00
38022;BME280;23832;43.216;27.946;2023-04-09T03:05:18;101365.75;;;12.22;100.00
38022;BME280;23832;43.216;27.946;2023-04-09T03:07:22;101366.41;;;12.24;100.00
38022;BME280;23832;43.216;27.946;2023-04-09T03:09:23;101370.53;;;12.18;100.00
38022;BME280;23832;43.216;27.946;2023-04-09T03:11:25;101364.59;;;12.16;100.00
38022;BME280;23832;43.216;27.946;2023-04-09T03:13:27;101366.25;;;12.09;100.00
38022;BME280;23832;43.216;27.946;2023-04-09T03:15:29;101369.72;;;12.10;100.00
38022;BME280;23832;43.216;27.946;2023-04-09T03:17:31;101367.06;;;12.10;100.00
38022;BME280;23832;43.216;27.946;2023-04-09T03:19:33;101373.69;;;12.06;100.00
38022;BME280;23832;43.216;27.946;2023-04-09T03:21:34;101375.50;;;11.97;100.00
38022;BME280;23832;43.216;27.946;2023-04-09T03:23:37;101374.16;;;11.93;100.00
38022;BME280;23832;43.216;27.946;2023-04-09T03:25:39;101365.72;;;11.81;100.00
38022;BME280;23832;43.216;27.946;2023-04-09T03:27:41;101371.66;;;11.83;100.00
38022;BME280;23832;43.216;27.946;2023-04-09T03:29:43;101372.84;;;11.81;100.00
38022;BME280;23832;43.216;27.946;2023-04-09T03:31:44;101376.09;;;11.75;100.00
38022;BME280;23832;43.216;27.946;2023-04-09T03:33:46;101381.59;;;11.81;100.00
38022;BME280;23832;43.216;27.946;2023-04-09T03:35:48;101381.25;;;11.84;100.00
38022;BME280;23832;43.216;27.946;2023-04-09T03:37:50;101378.03;;;11.56;100.00
38022;BME280;23832;43.216;27.946;2023-04-09T03:39:54;101373.56;;;11.57;100.00
38022;BME280;23832;43.216;27.946;2023-04-09T03:41:55;101379.03;;;11.63;100.00
38022;BME280;23832;43.216;27.946;2023-04-09T03:43:58;101381.88;;;11.70;100.00
38022;BME280;23832;43.216;27.946;2023-04-09T03:46:00;101386.47;;;11.60;100.00
38022;BME280;23832;43.216;27.946;2023-04-09T03:48:02;101381.50;;;11.65;100.00
38022;BME280;23832;43.216;27.946;2023-04-09T03:50:04;101386.88;;;11.89;100.00
38022;BME280;23832;43.216;27.946;2023-04-09T03:52:06;101378.78;;;11.83;100.00
38022;BME280;23832;43.216;27.946;2023-04-09T03:54:08;101384.00;;;11.75;100.00
38022;BME280;23832;43.216;27.946;2023-04-09T03:56:11;101388.13;;;11.69;100.00
38022;BME280;23832;43.216;27.946;2023-04-09T03:58:13;101395.72;;;11.64;100.00
38022;BME280;23832;43.216;27.946;2023-04-09T04:00:15;101383.50;;;11.63;100.00
38022;BME280;23832;43.216;27.946;2023-04-09T04:02:17;101385.16;;;11.72;100.00
38022;BME280;23832;43.216;27.946;2023-04-09T04:04:18;101378.25;;;11.79;100.00
38022;BME280;23832;43.216;27.946;2023-04-09T04:06:20;101379.59;;;11.83;100.00
38022;BME280;23832;43.216;27.946;2023-04-09T04:08:21;101384.09;;;11.99;100.00
38022;BME280;23832;43.216;27.946;2023-04-09T04:10:23;101386.91;;;11.98;100.00
38022;BME280;23832;43.216;27.946;2023-04-09T04:12:26;101392.84;;;12.08;100.00
38022;BME280;23832;43.216;27.946;2023-04-09T04:14:28;101389.69;;;12.12;100.00
38022;BME280;23832;43.216;27.946;2023-04-09T04:16:30;101385.91;;;12.23;100.00
38022;BME280;23832;43.216;27.946;2023-04-09T04:18:31;101392.69;;;12.34;100.00
38022;BME280;23832;43.216;27.946;2023-04-09T04:20:34;101392.00;;;12.40;100.00
38022;BME280;23832;43.216;27.946;2023-04-09T04:22:36;101392.53;;;12.43;100.00
38022;BME280;23832;43.216;27.946;2023-04-09T04:24:38;101402.94;;;12.37;100.00
38022;BME280;23832;43.216;27.946;2023-04-09T04:26:39;101406.06;;;12.48;100.00
38022;BME280;23832;43.216;27.946;2023-04-09T04:28:43;101405.22;;;12.64;100.00
38022;BME280;23832;43.216;27.946;2023-04-09T04:30:45;101398.72;;;12.83;100.00
38022;BME280;23832;43.216;27.946;2023-04-09T04:32:46;101399.69;;;12.98;100.00
38022;BME280;23832;43.216;27.946;2023-04-09T04:34:48;101397.19;;;13.13;100.00
38022;BME280;23832;43.216;27.946;2023-04-09T04:36:50;101402.28;;;13.15;100.00
38022;BME280;23832;43.216;27.946;2023-04-09T04:38:54;101394.63;;;13.36;99.42
38022;BME280;23832;43.216;27.946;2023-04-09T04:40:56;101399.38;;;13.49;95.91
38022;BME280;23832;43.216;27.946;2023-04-09T04:42:58;101401.63;;;13.60;94.02
38022;BME280;23832;43.216;27.946;2023-04-09T04:45:01;101404.00;;;13.78;91.29
38022;BME280;23832;43.216;27.946;2023-04-09T04:47:03;101396.84;;;13.86;89.11
38022;BME280;23832;43.216;27.946;2023-04-09T04:49:04;101399.94;;;13.90;88.11
38022;BME280;23832;43.216;27.946;2023-04-09T04:51:06;101397.59;;;13.95;86.68
38022;BME280;23832;43.216;27.946;2023-04-09T04:53:08;101396.38;;;14.06;86.26
38022;BME280;23832;43.216;27.946;2023-04-09T04:55:10;101394.94;;;14.18;86.10
38022;BME280;23832;43.216;27.946;2023-04-09T04:57:12;101403.19;;;14.46;83.03
38022;BME280;23832;43.216;27.946;2023-04-09T04:59:14;101404.53;;;14.65;79.18
38022;BME280;23832;43.216;27.946;2023-04-09T05:01:17;101409.84;;;14.80;76.69
38022;BME280;23832;43.216;27.946;2023-04-09T05:03:18;101406.53;;;14.77;76.11
38022;BME280;23832;43.216;27.946;2023-04-09T05:05:20;101411.13;;;14.98;76.04
38022;BME280;23832;43.216;27.946;2023-04-09T05:07:22;101411.25;;;15.20;73.89
38022;BME280;23832;43.216;27.946;2023-04-09T05:09:23;101408.94;;;15.31;73.63
38022;BME280;23832;43.216;27.946;2023-04-09T05:11:25;101411.28;;;15.56;73.22
38022;BME280;23832;43.216;27.946;2023-04-09T05:13:27;101406.41;;;15.74;71.51
38022;BME280;23832;43.216;27.946;2023-04-09T05:15:29;101405.34;;;16.11;67.80
38022;BME280;23832;43.216;27.946;2023-04-09T05:17:32;101412.41;;;16.26;66.11
38022;BME280;23832;43.216;27.946;2023-04-09T05:19:34;101406.00;;;16.41;65.09
38022;BME280;23832;43.216;27.946;2023-04-09T05:21:36;101413.47;;;16.53;64.60
38022;BME280;23832;43.216;27.946;2023-04-09T05:23:38;101409.91;;;16.67;64.55
38022;BME280;23832;43.216;27.946;2023-04-09T05:25:39;101417.38;;;16.78;63.10
38022;BME280;23832;43.216;27.946;2023-04-09T05:27:41;101414.03;;;16.20;64.11
38022;BME280;23832;43.216;27.946;2023-04-09T05:29:43;101415.22;;;15.96;64.81
38022;BME280;23832;43.216;27.946;2023-04-09T05:31:45;101411.75;;;15.96;65.82
38022;BME280;23832;43.216;27.946;2023-04-09T05:33:48;101415.56;;;16.57;63.27
38022;BME280;23832;43.216;27.946;2023-04-09T05:35:52;101414.66;;;16.01;64.34
38022;BME280;23832;43.216;27.946;2023-04-09T05:37:53;101419.63;;;15.68;67.21
38022;BME280;23832;43.216;27.946;2023-04-09T05:39:55;101418.41;;;15.70;67.50
38022;BME280;23832;43.216;27.946;2023-04-09T05:41:57;101426.88;;;16.38;65.89
38022;BME280;23832;43.216;27.946;2023-04-09T05:44:00;101426.13;;;16.23;65.05
38022;BME280;23832;43.216;27.946;2023-04-09T05:46:02;101425.78;;;16.54;63.94
38022;BME280;23832;43.216;27.946;2023-04-09T05:48:04;101428.63;;;16.52;64.47
38022;BME280;23832;43.216;27.946;2023-04-09T05:50:08;101434.16;;;16.79;62.91
38022;BME280;23832;43.216;27.946;2023-04-09T05:52:09;101440.38;;;17.20;61.59
38022;BME280;23832;43.216;27.946;2023-04-09T05:54:11;101443.75;;;17.36;60.50
38022;BME280;23832;43.216;27.946;2023-04-09T05:56:13;101446.06;;;17.45;60.78
38022;BME280;23832;43.216;27.946;2023-04-09T05:58:15;101440.69;;;17.39;60.85
38022;BME280;23832;43.216;27.946;2023-04-09T06:00:17;101439.69;;;17.46;60.69
38022;BME280;23832;43.216;27.946;2023-04-09T06:02:20;101432.03;;;17.78;59.77
38022;BME280;23832;43.216;27.946;2023-04-09T06:04:23;101439.84;;;17.86;58.86
38022;BME280;23832;43.216;27.946;2023-04-09T06:06:27;101438.91;;;18.20;58.36
38022;BME280;23832;43.216;27.946;2023-04-09T06:08:28;101442.19;;;18.42;57.22
38022;BME280;23832;43.216;27.946;2023-04-09T06:10:30;101440.16;;;18.51;57.52
38022;BME280;23832;43.216;27.946;2023-04-09T06:12:33;101444.19;;;17.94;58.11
38022;BME280;23832;43.216;27.946;2023-04-09T06:14:35;101442.41;;;18.27;56.99
38022;BME280;23832;43.216;27.946;2023-04-09T06:16:37;101449.59;;;18.40;57.36
38022;BME280;23832;43.216;27.946;2023-04-09T06:18:38;101448.28;;;19.22;55.02
38022;BME280;23832;43.216;27.946;2023-04-09T06:20:41;101450.88;;;19.55;53.76
38022;BME280;23832;43.216;27.946;2023-04-09T06:22:44;101459.34;;;19.45;53.77
38022;BME280;23832;43.216;27.946;2023-04-09T06:24:46;101458.88;;;19.55;53.30
38022;BME280;23832;43.216;27.946;2023-04-09T06:26:48;101458.53;;;19.45;53.60
38022;BME280;23832;43.216;27.946;2023-04-09T06:28:50;101460.72;;;20.37;50.87
38022;BME280;23832;43.216;27.946;2023-04-09T06:30:53;101461.84;;;19.92;50.79
38022;BME280;23832;43.216;27.946;2023-04-09T06:32:55;101463.97;;;20.39;52.23
38022;BME280;23832;43.216;27.946;2023-04-09T06:34:56;101466.06;;;20.44;51.35
38022;BME280;23832;43.216;27.946;2023-04-09T06:36:58;101465.78;;;20.52;50.62
38022;BME280;23832;43.216;27.946;2023-04-09T06:39:02;101462.88;;;20.54;50.26
38022;BME280;23832;43.216;27.946;2023-04-09T06:41:04;101465.00;;;20.13;50.50
38022;BME280;23832;43.216;27.946;2023-04-09T06:43:08;101474.13;;;19.48;51.38
38022;BME280;23832;43.216;27.946;2023-04-09T06:45:10;101470.72;;;19.27;52.72
38022;BME280;23832;43.216;27.946;2023-04-09T06:47:12;101463.56;;;20.11;51.62
38022;BME280;23832;43.216;27.946;2023-04-09T06:49:14;101462.72;;;20.17;50.91
38022;BME280;23832;43.216;27.946;2023-04-09T06:51:16;101463.56;;;20.49;50.36
38022;BME280;23832;43.216;27.946;2023-04-09T06:53:18;101465.06;;;19.62;52.52
38022;BME280;23832;43.216;27.946;2023-04-09T06:55:21;101465.94;;;19.43;52.03
38022;BME280;23832;43.216;27.946;2023-04-09T06:57:23;101472.47;;;20.36;51.82
38022;BME280;23832;43.216;27.946;2023-04-09T06:59:25;101467.59;;;19.44;52.79
38022;BME280;23832;43.216;27.946;2023-04-09T07:01:27;101460.34;;;20.84;51.21
38022;BME280;23832;43.216;27.946;2023-04-09T07:03:28;101474.78;;;20.58;51.63
38022;BME280;23832;43.216;27.946;2023-04-09T07:05:30;101459.72;;;20.00;52.66
38022;BME280;23832;43.216;27.946;2023-04-09T07:07:32;101465.06;;;20.88;51.18
38022;BME280;23832;43.216;27.946;2023-04-09T07:09:34;101463.25;;;21.44;50.50
38022;BME280;23832;43.216;27.946;2023-04-09T07:11:37;101462.19;;;21.63;49.42
38022;BME280;23832;43.216;27.946;2023-04-09T07:13:39;101459.72;;;21.62;49.56
38022;BME280;23832;43.216;27.946;2023-04-09T07:15:41;101458.53;;;21.76;49.51
38022;BME280;23832;43.216;27.946;2023-04-09T07:17:43;101458.06;;;20.06;52.70
38022;BME280;23832;43.216;27.946;2023-04-09T07:19:44;101458.22;;;21.84;48.84
38022;BME280;23832;43.216;27.946;2023-04-09T07:21:46;101458.38;;;22.31;47.73
38022;BME280;23832;43.216;27.946;2023-04-09T07:23:48;101461.69;;;21.36;48.74
38022;BME280;23832;43.216;27.946;2023-04-09T07:25:50;101459.69;;;22.52;46.07
38022;BME280;23832;43.216;27.946;2023-04-09T07:27:53;101455.03;;;23.06;44.78
38022;BME280;23832;43.216;27.946;2023-04-09T07:29:55;101459.59;;;22.58;46.40
38022;BME280;23832;43.216;27.946;2023-04-09T07:31:57;101455.03;;;23.17;44.79
38022;BME280;23832;43.216;27.946;2023-04-09T07:34:00;101456.13;;;23.45;44.78
38022;BME280;23832;43.216;27.946;2023-04-09T07:36:01;101457.47;;;23.83;44.39
38022;BME280;23832;43.216;27.946;2023-04-09T07:38:03;101461.00;;;24.00;42.86
38022;BME280;23832;43.216;27.946;2023-04-09T07:40:07;101455.41;;;23.61;43.59
38022;BME280;23832;43.216;27.946;2023-04-09T07:42:09;101451.63;;;24.02;42.77
38022;BME280;23832;43.216;27.946;2023-04-09T07:44:12;101459.88;;;24.13;43.19
38022;BME280;23832;43.216;27.946;2023-04-09T07:46:17;101457.13;;;24.75;40.82
38022;BME280;23832;43.216;27.946;2023-04-09T07:48:19;101460.19;;;24.16;42.21
38022;BME280;23832;43.216;27.946;2023-04-09T07:50:21;101459.84;;;23.96;42.72
38022;BME280;23832;43.216;27.946;2023-04-09T07:52:22;101458.19;;;24.74;42.05
38022;BME280;23832;43.216;27.946;2023-04-09T07:54:24;101454.06;;;24.88;41.84
38022;BME280;23832;43.216;27.946;2023-04-09T07:56:27;101461.03;;;24.84;41.11
38022;BME280;23832;43.216;27.946;2023-04-09T07:58:29;101459.59;;;25.15;40.05
38022;BME280;23832;43.216;27.946;2023-04-09T08:00:32;101464.50;;;24.62;41.22
38022;BME280;23832;43.216;27.946;2023-04-09T08:02:34;101469.00;;;25.73;40.04
38022;BME280;23832;43.216;27.946;2023-04-09T08:04:36;101463.88;;;25.33;39.50
38022;BME280;23832;43.216;27.946;2023-04-09T08:06:38;101465.84;;;25.81;39.13
38022;BME280;23832;43.216;27.946;2023-04-09T08:08:40;101471.44;;;25.53;39.03
38022;BME280;23832;43.216;27.946;2023-04-09T08:10:41;101471.84;;;26.15;38.26
38022;BME280;23832;43.216;27.946;2023-04-09T08:12:43;101472.09;;;24.49;40.79
38022;BME280;23832;43.216;27.946;2023-04-09T08:14:45;101471.38;;;24.37;41.07
38022;BME280;23832;43.216;27.946;2023-04-09T08:16:48;101461.56;;;24.81;40.91
38022;BME280;23832;43.216;27.946;2023-04-09T08:18:50;101468.16;;;25.29;39.09
38022;BME280;23832;43.216;27.946;2023-04-09T08:20:52;101462.50;;;25.08;38.54
38022;BME280;23832;43.216;27.946;2023-04-09T08:22:54;101468.47;;;25.76;38.53
38022;BME280;23832;43.216;27.946;2023-04-09T08:24:56;101469.91;;;26.11;37.45
38022;BME280;23832;43.216;27.946;2023-04-09T08:26:58;101465.25;;;25.57;37.87
38022;BME280;23832;43.216;27.946;2023-04-09T08:29:00;101458.75;;;25.09;38.67
38022;BME280;23832;43.216;27.946;2023-04-09T08:31:02;101465.00;;;25.59;38.75
38022;BME280;23832;43.216;27.946;2023-04-09T08:33:06;101469.06;;;27.11;36.30
38022;BME280;23832;43.216;27.946;2023-04-09T08:35:08;101470.97;;;26.74;36.26
38022;BME280;23832;43.216;27.946;2023-04-09T08:37:10;101468.22;;;24.78;38.61
38022;BME280;23832;43.216;27.946;2023-04-09T08:39:12;101479.00;;;27.01;35.92
38022;BME280;23832;43.216;27.946;2023-04-09T08:41:17;101464.22;;;26.39;36.74
38022;BME280;23832;43.216;27.946;2023-04-09T08:43:19;101466.31;;;25.78;37.45
38022;BME280;23832;43.216;27.946;2023-04-09T08:45:22;101467.59;;;25.48;38.65
38022;BME280;23832;43.216;27.946;2023-04-09T08:47:24;101467.34;;;26.58;37.30
38022;BME280;23832;43.216;27.946;2023-04-09T08:49:29;101461.56;;;27.24;37.25
38022;BME280;23832;43.216;27.946;2023-04-09T08:51:30;101463.94;;;26.73;36.98
38022;BME280;23832;43.216;27.946;2023-04-09T08:53:32;101469.75;;;27.49;36.25
38022;BME280;23832;43.216;27.946;2023-04-09T08:55:35;101462.41;;;27.34;36.46
38022;BME280;23832;43.216;27.946;2023-04-09T08:57:37;101465.91;;;26.45;36.91
38022;BME280;23832;43.216;27.946;2023-04-09T08:59:39;101459.25;;;25.28;38.31
38022;BME280;23832;43.216;27.946;2023-04-09T09:01:41;101458.84;;;26.12;37.92
38022;BME280;23832;43.216;27.946;2023-04-09T09:03:51;101451.38;;;26.56;37.32
38022;BME280;23832;43.216;27.946;2023-04-09T09:05:54;101466.94;;;26.76;37.06
38022;BME280;23832;43.216;27.946;2023-04-09T09:07:56;101462.03;;;27.10;35.60
38022;BME280;23832;43.216;27.946;2023-04-09T09:09:58;101456.66;;;27.15;36.12
38022;BME280;23832;43.216;27.946;2023-04-09T09:12:02;101463.38;;;27.08;35.87
38022;BME280;23832;43.216;27.946;2023-04-09T09:14:04;101455.44;;;26.96;35.59
38022;BME280;23832;43.216;27.946;2023-04-09T09:16:11;101449.94;;;24.80;38.79
38022;BME280;23832;43.216;27.946;2023-04-09T09:18:13;101457.44;;;28.80;33.95
38022;BME280;23832;43.216;27.946;2023-04-09T09:20:18;101459.09;;;28.15;34.91
38022;BME280;23832;43.216;27.946;2023-04-09T09:22:23;101460.22;;;28.35;33.77
38022;BME280;23832;43.216;27.946;2023-04-09T09:24:24;101451.50;;;28.12;34.26
38022;BME280;23832;43.216;27.946;2023-04-09T09:26:26;101449.19;;;29.26;33.15
38022;BME280;23832;43.216;27.946;2023-04-09T09:28:33;101451.22;;;29.99;31.77
38022;BME280;23832;43.216;27.946;2023-04-09T09:30:36;101455.78;;;27.73;34.03
38022;BME280;23832;43.216;27.946;2023-04-09T09:32:38;101456.09;;;27.86;34.55
38022;BME280;23832;43.216;27.946;2023-04-09T09:34:40;101448.03;;;29.37;32.67
38022;BME280;23832;43.216;27.946;2023-04-09T09:36:42;101453.13;;;28.03;33.39
38022;BME280;23832;43.216;27.946;2023-04-09T09:38:52;101460.22;;;28.35;33.20
38022;BME280;23832;43.216;27.946;2023-04-09T09:40:55;101447.13;;;27.70;33.98
38022;BME280;23832;43.216;27.946;2023-04-09T09:42:57;101449.94;;;29.37;32.52
38022;BME280;23832;43.216;27.946;2023-04-09T09:44:59;101444.13;;;30.08;31.81
38022;BME280;23832;43.216;27.946;2023-04-09T09:47:01;101440.66;;;28.63;33.15
38022;BME280;23832;43.216;27.946;2023-04-09T09:49:03;101444.22;;;29.49;32.39
38022;BME280;23832;43.216;27.946;2023-04-09T09:51:06;101437.31;;;29.12;32.93
38022;BME280;23832;43.216;27.946;2023-04-09T09:53:09;101434.13;;;29.54;31.82
38022;BME280;23832;43.216;27.946;2023-04-09T09:55:13;101435.41;;;30.06;31.01
38022;BME280;23832;43.216;27.946;2023-04-09T09:57:16;101428.66;;;29.99;31.63
38022;BME280;23832;43.216;27.946;2023-04-09T09:59:20;101434.44;;;28.27;33.42
38022;BME280;23832;43.216;27.946;2023-04-09T10:01:22;101426.78;;;28.90;33.05
38022;BME280;23832;43.216;27.946;2023-04-09T10:03:25;101434.22;;;29.34;32.32
38022;BME280;23832;43.216;27.946;2023-04-09T10:05:27;101434.16;;;28.59;33.36
38022;BME280;23832;43.216;27.946;2023-04-09T10:07:29;101437.63;;;27.73;33.41
38022;BME280;23832;43.216;27.946;2023-04-09T10:09:31;101422.44;;;28.74;32.70
38022;BME280;23832;43.216;27.946;2023-04-09T10:11:36;101429.75;;;29.98;31.58
38022;BME280;23832;43.216;27.946;2023-04-09T10:13:39;101422.72;;;28.72;32.22
38022;BME280;23832;43.216;27.946;2023-04-09T10:15:41;101429.44;;;30.04;31.75
38022;BME280;23832;43.216;27.946;2023-04-09T10:17:45;101435.22;;;30.61;30.48
38022;BME280;23832;43.216;27.946;2023-04-09T10:19:48;101441.13;;;31.21;29.84
38022;BME280;23832;43.216;27.946;2023-04-09T10:21:55;101436.81;;;28.79;32.72
38022;BME280;23832;43.216;27.946;2023-04-09T10:23:58;101433.81;;;28.91;32.96
38022;BME280;23832;43.216;27.946;2023-04-09T10:26:04;101429.06;;;29.27;32.38
38022;BME280;23832;43.216;27.946;2023-04-09T10:28:13;101429.25;;;29.46;32.21